createdAt,value
2019-02-15T00:00:50.912Z,99.90
2019-02-15T00:03:20.305Z,99.90
2019-02-15T00:05:49.803Z,99.90
2019-02-15T00:08:19.266Z,99.90
2019-02-15T00:10:48.836Z,99.90
2019-02-15T00:13:18.336Z,99.90
2019-02-15T00:15:47.901Z,99.90
2019-02-15T00:18:21.943Z,99.90
2019-02-15T00:20:52.988Z,99.90
2019-02-15T00:23:22.454Z,99.90
2019-02-15T00:25:52.025Z,99.90
2019-02-15T00:28:21.511Z,99.90
2019-02-15T00:30:50.928Z,99.90
2019-02-15T00:33:20.439Z,99.90
2019-02-15T00:35:49.951Z,99.90
2019-02-15T00:38:19.403Z,99.90
2019-02-15T00:40:48.904Z,99.90
2019-02-15T00:43:22.227Z,99.90
2019-02-15T00:45:51.137Z,99.90
2019-02-15T00:48:22.199Z,99.90
2019-02-15T00:51:02.291Z,99.90
2019-02-15T00:53:36.113Z,99.90
2019-02-15T00:56:07.153Z,99.90
2019-02-15T00:58:38.207Z,99.90
2019-02-15T01:01:18.379Z,99.90
2019-02-15T01:03:49.429Z,99.90
2019-02-15T01:06:20.479Z,99.90
2019-02-15T01:08:57.335Z,99.90
2019-02-15T01:11:28.406Z,99.90
2019-02-15T01:13:57.918Z,99.90
2019-02-15T01:16:27.384Z,99.90
2019-02-15T01:18:56.874Z,99.90
2019-02-15T01:21:26.331Z,99.90
2019-02-15T01:23:55.806Z,99.90
2019-02-15T01:26:26.865Z,99.90
2019-02-15T01:29:13.046Z,99.90
2019-02-15T01:31:44.340Z,99.90
2019-02-15T01:34:31.393Z,99.90
2019-02-15T01:37:05.199Z,99.90
2019-02-15T01:39:48.317Z,99.90
2019-02-15T01:42:19.361Z,99.90
2019-02-15T01:44:50.439Z,99.90
2019-02-15T01:47:20.316Z,99.90
2019-02-15T01:49:49.775Z,99.90
2019-02-15T01:52:19.201Z,99.90
2019-02-15T01:54:48.670Z,99.90
2019-02-15T01:57:18.141Z,99.90
2019-02-15T01:59:47.864Z,99.90
2019-02-15T02:02:17.324Z,99.90
2019-02-15T02:04:46.792Z,99.90
2019-02-15T02:07:16.327Z,99.90
2019-02-15T02:09:45.842Z,99.90
2019-02-15T02:12:15.312Z,99.90
2019-02-15T02:14:45.188Z,99.90
2019-02-15T02:17:14.667Z,99.90
2019-02-15T02:19:44.184Z,99.90
2019-02-15T02:22:13.844Z,99.90
2019-02-15T02:24:43.317Z,99.90
2019-02-15T02:27:12.744Z,99.90
2019-02-15T02:29:42.231Z,99.90
2019-02-15T02:32:11.617Z,99.90
2019-02-15T02:34:41.155Z,99.90
2019-02-15T02:37:10.626Z,99.90
2019-02-15T02:39:40.038Z,99.90
2019-02-15T02:42:09.503Z,99.90
2019-02-15T02:44:38.977Z,99.90
2019-02-15T02:47:08.526Z,99.90
2019-02-15T02:49:38.111Z,99.90
2019-02-15T02:52:07.598Z,99.90
2019-02-15T02:54:37.091Z,99.90
2019-02-15T02:57:06.556Z,99.90
2019-02-15T02:59:36.013Z,99.90
2019-02-15T03:02:05.782Z,99.90
2019-02-15T03:04:35.351Z,99.90
2019-02-15T03:07:04.817Z,99.90
2019-02-15T03:09:34.327Z,99.90
2019-02-15T03:12:03.808Z,99.90
2019-02-15T03:14:33.671Z,99.90
2019-02-15T03:17:03.174Z,99.90
2019-02-15T03:19:32.724Z,99.90
2019-02-15T03:22:02.195Z,99.90
2019-02-15T03:24:31.702Z,99.90
2019-02-15T03:27:01.176Z,99.90
2019-02-15T03:29:30.639Z,99.90
2019-02-15T03:32:00.139Z,99.90
2019-02-15T03:34:29.761Z,99.90
2019-02-15T03:37:00.810Z,99.90
2019-02-15T03:39:31.817Z,99.90
2019-02-15T03:42:01.342Z,99.90
2019-02-15T03:44:30.869Z,99.90
2019-02-15T03:47:00.337Z,99.90
2019-02-15T03:49:29.803Z,99.90
2019-02-15T03:51:59.303Z,99.90
2019-02-15T03:54:28.767Z,99.90
2019-02-15T03:56:58.262Z,99.90
2019-02-15T03:59:27.766Z,99.90
2019-02-15T04:01:57.247Z,99.90
2019-02-15T04:04:26.813Z,99.90
2019-02-15T04:06:56.397Z,99.90
2019-02-15T04:09:25.889Z,99.90
2019-02-15T04:11:55.340Z,99.90
2019-02-15T04:14:32.608Z,99.90
2019-02-15T04:16:56.135Z,99.90
2019-02-15T04:19:25.555Z,99.90
2019-02-15T04:21:55.028Z,99.90
2019-02-15T04:24:24.515Z,99.90
2019-02-15T04:26:54.066Z,99.90
2019-02-15T04:29:23.551Z,99.90
2019-02-15T04:31:53.020Z,99.90
2019-02-15T04:34:22.586Z,99.90
2019-02-15T04:36:52.414Z,99.90
2019-02-15T04:39:21.883Z,99.90
2019-02-15T04:41:51.351Z,99.90
2019-02-15T04:44:20.853Z,99.90
2019-02-15T04:46:50.348Z,99.90
2019-02-15T04:49:19.819Z,99.90
2019-02-15T04:51:49.392Z,99.90
2019-02-15T04:54:18.974Z,99.90
2019-02-15T04:56:48.458Z,99.90
2019-02-15T04:59:17.951Z,99.90
2019-02-15T05:01:47.417Z,99.90
2019-02-15T05:04:16.804Z,99.90
2019-02-15T05:06:46.298Z,99.90
2019-02-15T05:09:15.750Z,99.90
2019-02-15T05:11:45.226Z,99.90
2019-02-15T05:14:14.703Z,99.90
2019-02-15T05:16:44.282Z,99.90
2019-02-15T05:19:13.676Z,99.90
2019-02-15T05:21:43.180Z,99.90
2019-02-15T05:24:12.712Z,99.90
2019-02-15T05:26:42.236Z,99.90
2019-02-15T05:29:11.719Z,99.90
2019-02-15T05:31:41.182Z,99.90
2019-02-15T05:34:10.651Z,99.90
2019-02-15T05:36:40.141Z,99.90
2019-02-15T05:39:09.609Z,99.90
2019-02-15T05:41:39.080Z,99.90
2019-02-15T05:44:08.574Z,99.90
2019-02-15T05:46:38.056Z,99.90
2019-02-15T05:49:07.525Z,99.90
2019-02-15T05:51:37.035Z,99.90
2019-02-15T05:54:06.500Z,99.90
2019-02-15T05:56:36.072Z,99.90
2019-02-15T05:59:05.568Z,99.90
2019-02-15T06:01:35.406Z,99.90
2019-02-15T06:04:05.047Z,99.90
2019-02-15T06:06:34.555Z,99.90
2019-02-15T06:09:05.026Z,99.90
2019-02-15T06:11:34.520Z,99.90
2019-02-15T06:14:04.018Z,99.90
2019-02-15T06:16:33.485Z,99.90
2019-02-15T06:19:02.965Z,99.90
2019-02-15T06:21:32.470Z,99.90
2019-02-15T06:24:01.936Z,99.90
2019-02-15T06:26:31.398Z,99.90
2019-02-15T06:29:00.892Z,99.90
2019-02-15T06:31:30.361Z,99.90
2019-02-15T06:33:59.827Z,99.90
2019-02-15T06:36:30.895Z,99.90
2019-02-15T06:39:04.771Z,99.90
2019-02-15T06:41:34.241Z,99.90
2019-02-15T06:44:03.731Z,99.90
2019-02-15T06:46:33.175Z,99.90
2019-02-15T06:49:02.667Z,99.90
2019-02-15T06:51:32.129Z,99.90
2019-02-15T06:54:01.598Z,99.90
2019-02-15T06:56:31.097Z,99.90
2019-02-15T06:59:04.788Z,99.90
2019-02-15T07:01:35.878Z,99.90
2019-02-15T07:04:09.382Z,99.90
2019-02-15T07:06:38.912Z,99.90
2019-02-15T07:09:08.405Z,99.90
2019-02-15T07:11:37.884Z,99.90
2019-02-15T07:14:07.358Z,99.90
2019-02-15T07:16:36.847Z,99.90
2019-02-15T07:19:06.308Z,99.90
2019-02-15T07:21:35.786Z,99.90
2019-02-15T07:24:05.270Z,99.90
2019-02-15T07:26:34.734Z,99.90
2019-02-15T07:29:04.252Z,99.90
2019-02-15T07:31:33.741Z,99.90
2019-02-15T07:34:03.215Z,99.90
2019-02-15T07:36:32.785Z,99.90
2019-02-15T07:39:02.297Z,99.90
2019-02-15T07:41:31.775Z,99.90
2019-02-15T07:44:01.233Z,99.90
2019-02-15T07:46:30.737Z,99.90
2019-02-15T07:49:00.204Z,99.90
2019-02-15T07:51:29.680Z,99.90
2019-02-15T07:53:59.148Z,99.90
2019-02-15T07:56:28.625Z,99.90
2019-02-15T07:58:58.133Z,99.90
2019-02-15T08:01:27.583Z,99.90
2019-02-15T08:03:57.079Z,99.90
2019-02-15T08:06:26.532Z,99.90
2019-02-15T08:09:15.372Z,99.90
2019-02-15T08:11:44.857Z,99.90
2019-02-15T08:14:16.067Z,99.90
2019-02-15T08:16:45.542Z,99.90
2019-02-15T08:19:15.003Z,99.90
2019-02-15T08:21:44.478Z,99.90
2019-02-15T08:24:13.969Z,99.90
2019-02-15T08:26:43.443Z,99.90
2019-02-15T08:29:12.912Z,99.90
2019-02-15T08:31:42.566Z,99.90
2019-02-15T08:34:12.041Z,99.90
2019-02-15T08:36:41.504Z,99.90
2019-02-15T08:39:11.073Z,99.90
2019-02-15T08:41:40.570Z,99.90
2019-02-15T08:44:10.097Z,99.90
2019-02-15T08:46:39.561Z,99.90
2019-02-15T08:49:09.044Z,99.90
2019-02-15T08:51:38.629Z,99.90
2019-02-15T08:54:08.107Z,99.90
2019-02-15T08:56:37.550Z,99.90
2019-02-15T08:59:07.150Z,99.90
2019-02-15T09:01:36.578Z,99.90
2019-02-15T09:04:06.047Z,99.90
2019-02-15T09:06:35.540Z,99.90
2019-02-15T09:09:05.705Z,99.90
2019-02-15T09:11:35.172Z,99.90
2019-02-15T09:14:04.756Z,99.90
2019-02-15T09:16:34.218Z,99.90
2019-02-15T09:19:03.692Z,99.90
2019-02-15T09:21:33.218Z,99.90
2019-02-15T09:24:02.689Z,99.90
2019-02-15T09:26:32.159Z,99.90
2019-02-15T09:29:03.449Z,99.90
2019-02-15T09:31:33.119Z,99.90
2019-02-15T09:34:02.586Z,99.90
2019-02-15T09:36:32.066Z,99.90
2019-02-15T09:39:01.524Z,99.90
2019-02-15T09:41:30.988Z,99.90
2019-02-15T09:44:00.485Z,99.90
2019-02-15T09:46:29.938Z,99.90
2019-02-15T09:48:59.405Z,99.90
2019-02-15T09:51:28.836Z,99.90
2019-02-15T09:53:58.300Z,99.90
2019-02-15T09:56:27.775Z,99.90
2019-02-15T09:58:57.575Z,99.90
2019-02-15T10:01:26.963Z,99.90
2019-02-15T10:03:56.432Z,99.90
2019-02-15T10:06:25.900Z,99.90
2019-02-15T10:08:55.618Z,99.90
2019-02-15T10:11:25.094Z,99.90
2019-02-15T10:13:54.693Z,99.90
2019-02-15T10:16:29.708Z,99.90
2019-02-15T10:18:55.605Z,98.40
2019-02-15T10:21:25.117Z,98.50
2019-02-15T10:23:54.586Z,98.10
2019-02-15T10:26:24.059Z,97.50
2019-02-15T10:28:53.559Z,95.50
2019-02-15T10:31:23.017Z,94.90
2019-02-15T10:33:52.486Z,92.60
2019-02-15T10:36:22.073Z,92.30
2019-02-15T10:38:51.553Z,92.20
2019-02-15T10:41:21.007Z,91.70
2019-02-15T10:43:50.435Z,91.10
2019-02-15T10:46:19.936Z,90.60
2019-02-15T10:48:49.408Z,89.80
2019-02-15T10:51:18.917Z,87.30
2019-02-15T10:53:48.384Z,87.40
2019-02-15T10:56:17.848Z,87.00
2019-02-15T10:58:47.354Z,85.60
2019-02-15T11:01:16.825Z,84.80
2019-02-15T11:03:46.293Z,81.90
2019-02-15T11:06:15.790Z,78.60
2019-02-15T11:08:45.263Z,78.30
2019-02-15T11:11:14.675Z,75.40
2019-02-15T11:13:44.126Z,71.80
2019-02-15T11:16:13.597Z,70.60
2019-02-15T11:18:43.057Z,68.80
2019-02-15T11:21:12.617Z,66.20
2019-02-15T11:23:42.088Z,65.60
2019-02-15T11:26:11.561Z,62.90
2019-02-15T11:28:41.063Z,60.20
2019-02-15T11:31:10.521Z,56.50
2019-02-15T11:33:39.994Z,50.50
2019-02-15T11:36:09.525Z,46.10
2019-02-15T11:38:39.057Z,43.20
2019-02-15T11:41:11.233Z,41.80
2019-02-15T11:43:39.810Z,37.90
2019-02-15T11:46:09.208Z,36.60
2019-02-15T11:48:38.675Z,34.10
2019-02-15T11:51:08.177Z,34.10
2019-02-15T11:53:37.653Z,33.50
2019-02-15T11:56:07.192Z,31.50
2019-02-15T11:58:36.617Z,31.40
2019-02-15T12:01:06.715Z,30.60
2019-02-15T12:03:36.184Z,30.40
2019-02-15T12:06:05.684Z,30.50
2019-02-15T12:08:35.168Z,30.60
2019-02-15T12:11:04.638Z,30.00
2019-02-15T12:13:34.154Z,29.90
2019-02-15T12:16:03.723Z,30.00
2019-02-15T12:18:33.187Z,30.00
2019-02-15T12:21:02.722Z,30.40
2019-02-15T12:23:32.231Z,30.00
2019-02-15T12:26:01.735Z,29.70
2019-02-15T12:28:31.236Z,29.40
2019-02-15T12:31:00.722Z,29.10
2019-02-15T12:33:30.190Z,29.20
2019-02-15T12:35:59.686Z,28.50
2019-02-15T12:38:29.167Z,28.10
2019-02-15T12:40:58.946Z,28.00
2019-02-15T12:43:28.450Z,28.00
2019-02-15T12:45:57.984Z,28.30
2019-02-15T12:48:27.589Z,28.50
2019-02-15T12:50:57.104Z,28.30
2019-02-15T12:53:26.574Z,28.70
2019-02-15T12:55:55.997Z,28.30
2019-02-15T12:58:25.491Z,28.30
2019-02-15T13:00:54.956Z,28.20
2019-02-15T13:03:24.455Z,28.10
2019-02-15T13:05:53.943Z,27.60
2019-02-15T13:08:23.408Z,27.80
2019-02-15T13:10:52.929Z,27.30
2019-02-15T13:13:22.420Z,27.60
2019-02-15T13:15:51.892Z,27.90
2019-02-15T13:18:21.401Z,28.40
2019-02-15T13:20:50.875Z,28.60
2019-02-15T13:23:20.462Z,29.10
2019-02-15T13:25:49.975Z,28.90
2019-02-15T13:28:19.461Z,29.30
2019-02-15T13:30:48.974Z,30.20
2019-02-15T13:33:18.531Z,31.40
2019-02-15T13:35:48.012Z,30.70
2019-02-15T13:38:17.474Z,30.50
2019-02-15T13:40:46.964Z,32.10
2019-02-15T13:43:16.492Z,33.50
2019-02-15T13:45:45.960Z,34.50
2019-02-15T13:48:15.455Z,35.00
2019-02-15T13:50:44.918Z,35.70
2019-02-15T13:53:14.381Z,35.60
2019-02-15T13:55:43.922Z,35.40
2019-02-15T13:58:13.382Z,34.90
2019-02-15T14:00:43.798Z,35.10
2019-02-15T14:03:13.291Z,34.80
2019-02-15T14:05:42.689Z,32.60
2019-02-15T14:08:12.389Z,30.40
2019-02-15T14:10:41.899Z,29.40
2019-02-15T14:13:11.369Z,28.70
2019-02-15T14:15:40.854Z,28.00
2019-02-15T14:18:10.356Z,27.50
2019-02-15T14:20:39.835Z,27.10
2019-02-15T14:23:09.320Z,27.30
2019-02-15T14:25:38.832Z,26.90
2019-02-15T14:28:08.315Z,26.50
2019-02-15T14:30:37.790Z,26.60
2019-02-15T14:33:07.318Z,26.20
2019-02-15T14:35:36.965Z,25.90
2019-02-15T14:38:06.441Z,25.80
2019-02-15T14:40:35.936Z,25.90
2019-02-15T14:43:05.545Z,26.20
2019-02-15T14:45:35.047Z,26.20
2019-02-15T14:48:04.566Z,26.80
2019-02-15T14:50:34.037Z,27.90
2019-02-15T14:53:03.509Z,28.30
2019-02-15T14:55:33.031Z,27.70
2019-02-15T14:58:02.507Z,27.90
2019-02-15T15:00:31.983Z,29.20
2019-02-15T15:03:01.487Z,28.80
2019-02-15T15:05:30.961Z,29.10
2019-02-15T15:08:00.451Z,28.60
2019-02-15T15:10:29.947Z,29.30
2019-02-15T15:12:59.436Z,29.90
2019-02-15T15:15:28.963Z,29.80
2019-02-15T15:18:02.509Z,31.10
2019-02-15T15:20:29.748Z,32.00
2019-02-15T15:22:59.486Z,32.90
2019-02-15T15:25:28.953Z,34.00
2019-02-15T15:27:58.439Z,35.70
2019-02-15T15:30:27.993Z,37.50
2019-02-15T15:32:57.536Z,38.10
2019-02-15T15:35:27.033Z,38.70
2019-02-15T15:37:56.512Z,39.50
2019-02-15T15:40:25.961Z,40.20
2019-02-15T15:42:55.442Z,40.60
2019-02-15T15:45:25.043Z,41.20
2019-02-15T15:47:54.570Z,42.00
2019-02-15T15:50:24.079Z,42.40
2019-02-15T15:52:53.577Z,43.50
2019-02-15T15:55:23.062Z,44.00
2019-02-15T15:57:52.563Z,44.60
2019-02-15T16:00:22.058Z,45.70
2019-02-15T16:02:51.519Z,46.70
2019-02-15T16:05:20.998Z,48.00
2019-02-15T16:07:50.504Z,49.00
2019-02-15T16:10:19.979Z,50.10
2019-02-15T16:12:49.449Z,50.90
2019-02-15T16:15:18.958Z,51.60
2019-02-15T16:17:48.438Z,52.70
2019-02-15T16:20:17.898Z,53.30
2019-02-15T16:22:47.398Z,54.10
2019-02-15T16:25:16.909Z,54.60
2019-02-15T16:27:46.416Z,55.00
2019-02-15T16:30:16.688Z,55.40
2019-02-15T16:32:46.189Z,55.70
2019-02-15T16:35:15.657Z,56.20
2019-02-15T16:37:45.152Z,56.60
2019-02-15T16:40:16.046Z,57.10
2019-02-15T16:42:45.523Z,57.50
2019-02-15T16:45:18.285Z,57.60
2019-02-15T16:47:47.845Z,58.20
2019-02-15T16:50:17.326Z,58.60
2019-02-15T16:52:46.743Z,59.60
2019-02-15T16:55:16.249Z,59.90
2019-02-15T16:57:46.814Z,61.20
2019-02-15T17:00:16.278Z,61.60
2019-02-15T17:02:45.885Z,62.30
2019-02-15T17:05:15.357Z,63.00
2019-02-15T17:07:44.848Z,63.90
2019-02-15T17:10:14.465Z,64.30
2019-02-15T17:12:44.000Z,64.60
2019-02-15T17:15:18.282Z,65.70
2019-02-15T17:17:47.762Z,66.60
2019-02-15T17:20:17.230Z,68.40
2019-02-15T17:22:46.735Z,69.40
2019-02-15T17:25:16.218Z,70.20
2019-02-15T17:27:45.695Z,71.30
2019-02-15T17:30:15.255Z,72.30
2019-02-15T17:32:44.825Z,73.50
2019-02-15T17:35:14.284Z,74.40
2019-02-15T17:37:43.801Z,75.50
2019-02-15T17:40:17.339Z,76.90
2019-02-15T17:42:46.826Z,78.00
2019-02-15T17:45:16.307Z,79.60
2019-02-15T17:47:45.799Z,81.90
2019-02-15T17:50:15.260Z,83.20
2019-02-15T17:52:44.779Z,84.50
2019-02-15T17:55:14.228Z,86.00
2019-02-15T17:57:43.701Z,87.80
2019-02-15T18:00:15.694Z,89.60
2019-02-15T18:02:45.179Z,90.80
2019-02-15T18:05:17.310Z,91.70
2019-02-15T18:07:49.872Z,92.70
2019-02-15T18:10:19.389Z,93.90
2019-02-15T18:12:48.818Z,94.90
2019-02-15T18:15:18.348Z,96.10
2019-02-15T18:17:47.835Z,97.60
2019-02-15T18:20:17.288Z,98.90
2019-02-15T18:22:46.817Z,99.30
2019-02-15T18:25:16.327Z,99.70
2019-02-15T18:27:45.782Z,99.90
2019-02-15T18:30:18.323Z,99.90
2019-02-15T18:32:47.744Z,99.90
2019-02-15T18:35:17.206Z,99.90
2019-02-15T18:37:47.030Z,99.90
2019-02-15T18:40:16.534Z,99.90
2019-02-15T18:42:45.991Z,99.90
2019-02-15T18:45:17.001Z,99.90
2019-02-15T18:47:46.475Z,99.90
2019-02-15T18:50:15.936Z,99.90
2019-02-15T18:52:45.590Z,99.90
2019-02-15T18:55:15.045Z,99.90
2019-02-15T18:57:44.556Z,99.90
2019-02-15T19:00:16.770Z,99.90
2019-02-15T19:02:53.271Z,99.90
2019-02-15T19:05:22.805Z,99.90
2019-02-15T19:07:52.280Z,99.90
2019-02-15T19:10:23.734Z,99.90
2019-02-15T19:12:53.341Z,99.90
2019-02-15T19:15:22.817Z,99.90
2019-02-15T19:17:52.322Z,99.90
2019-02-15T19:20:21.959Z,99.90
2019-02-15T19:22:51.451Z,99.90
2019-02-15T19:25:21.613Z,99.90
2019-02-15T19:27:51.103Z,99.90
2019-02-15T19:30:33.625Z,99.90
2019-02-15T19:33:03.144Z,99.90
2019-02-15T19:35:32.647Z,99.90
2019-02-15T19:38:02.249Z,99.90
2019-02-15T19:40:31.834Z,99.90
2019-02-15T19:43:05.756Z,99.90
2019-02-15T19:45:35.249Z,99.90
2019-02-15T19:48:12.241Z,99.90
2019-02-15T19:50:41.724Z,99.90
2019-02-15T19:53:11.199Z,99.90
2019-02-15T19:55:40.837Z,99.90
2019-02-15T19:58:10.322Z,99.90
2019-02-15T20:00:39.823Z,99.90
2019-02-15T20:03:09.432Z,99.90
2019-02-15T20:05:38.948Z,99.90
2019-02-15T20:08:08.437Z,99.90
2019-02-15T20:10:38.149Z,99.90
2019-02-15T20:13:07.613Z,99.90
2019-02-15T20:15:37.246Z,99.90
2019-02-15T20:18:06.710Z,99.90
2019-02-15T20:20:43.469Z,99.90
2019-02-15T20:23:13.042Z,99.90
2019-02-15T20:25:42.508Z,99.90
2019-02-15T20:28:14.278Z,99.90
2019-02-15T20:30:43.345Z,99.90
2019-02-15T20:33:12.940Z,99.90
2019-02-15T20:35:42.468Z,99.90
2019-02-15T20:38:12.360Z,99.90
2019-02-15T20:40:41.845Z,99.90
2019-02-15T20:43:11.366Z,99.90
2019-02-15T20:45:40.842Z,99.90
2019-02-15T20:48:12.266Z,99.90
2019-02-15T20:50:41.552Z,99.90
2019-02-15T20:53:11.061Z,99.90
2019-02-15T20:55:40.551Z,99.90
2019-02-15T20:58:10.096Z,99.90
2019-02-15T21:00:39.573Z,99.90
2019-02-15T21:03:09.045Z,99.90
2019-02-15T21:05:38.622Z,99.90
2019-02-15T21:08:12.369Z,99.90
2019-02-15T21:10:41.850Z,99.90
2019-02-15T21:13:19.935Z,99.90
2019-02-15T21:15:42.561Z,99.90
2019-02-15T21:18:12.029Z,99.90
2019-02-15T21:20:41.647Z,99.90
2019-02-15T21:23:11.125Z,99.90
2019-02-15T21:25:40.706Z,99.90
2019-02-15T21:28:10.222Z,99.90
2019-02-15T21:30:39.694Z,99.90
2019-02-15T21:33:11.234Z,99.90
2019-02-15T21:35:41.964Z,99.90
2019-02-15T21:38:11.448Z,99.90
2019-02-15T21:40:40.941Z,99.90
2019-02-15T21:43:10.442Z,99.90
2019-02-15T21:45:39.997Z,99.90
2019-02-15T21:48:09.563Z,99.90
2019-02-15T21:50:39.071Z,99.90
2019-02-15T21:53:08.539Z,99.90
2019-02-15T21:55:38.020Z,99.90
2019-02-15T21:58:07.516Z,99.90
2019-02-15T22:00:36.999Z,99.90
2019-02-15T22:03:06.461Z,99.90
2019-02-15T22:05:35.975Z,99.90
2019-02-15T22:08:05.489Z,99.90
2019-02-15T22:10:34.965Z,99.90
2019-02-15T22:13:04.658Z,99.90
2019-02-15T22:15:34.137Z,99.90
2019-02-15T22:18:03.820Z,99.90
2019-02-15T22:20:33.322Z,99.90
2019-02-15T22:23:03.142Z,99.90
2019-02-15T22:25:32.607Z,99.90
2019-02-15T22:28:02.121Z,99.90
2019-02-15T22:30:31.568Z,99.90
2019-02-15T22:33:01.082Z,99.90
2019-02-15T22:35:30.541Z,99.90
2019-02-15T22:38:00.009Z,99.90
2019-02-15T22:40:35.982Z,99.90
2019-02-15T22:43:18.536Z,99.90
2019-02-15T22:45:48.060Z,99.90
2019-02-15T22:48:17.536Z,99.90
2019-02-15T22:50:47.157Z,99.90
2019-02-15T22:53:16.746Z,99.90
2019-02-15T22:55:46.211Z,99.90
2019-02-15T22:58:15.687Z,99.90
2019-02-15T23:01:04.882Z,99.90
2019-02-15T23:03:34.509Z,99.90
2019-02-15T23:06:04.186Z,99.90
2019-02-15T23:08:33.690Z,99.90
2019-02-15T23:11:03.307Z,99.90
2019-02-15T23:13:32.812Z,99.90
2019-02-15T23:16:02.311Z,99.90
2019-02-15T23:18:31.794Z,99.90
2019-02-15T23:21:01.252Z,99.90
2019-02-15T23:23:30.808Z,99.90
2019-02-15T23:26:00.295Z,99.90
2019-02-15T23:28:29.763Z,99.90
2019-02-15T23:30:59.263Z,99.90
2019-02-15T23:33:28.747Z,99.90
2019-02-15T23:35:58.331Z,99.90
2019-02-15T23:38:27.829Z,99.90
2019-02-15T23:40:57.302Z,99.90
2019-02-15T23:43:26.792Z,99.90
2019-02-15T23:45:56.283Z,99.90
2019-02-15T23:48:25.760Z,99.90
2019-02-15T23:50:55.385Z,99.90
2019-02-15T23:53:24.942Z,99.90
2019-02-15T23:55:54.426Z,99.90
2019-02-15T23:58:23.925Z,99.90
